sensor_id;sensor_type;location;lat;lon;timestamp;pressure;altitude;pressure_sealevel;temperature;humidity
45078;BME280;60508;42.622;25.416;2023-03-23T00:01:30;96714.03;;;10.77;84.80
45078;BME280;60508;42.622;25.416;2023-03-23T00:03:59;96713.19;;;10.77;85.04
45078;BME280;60508;42.622;25.416;2023-03-23T00:06:27;96713.53;;;10.81;85.38
45078;BME280;60508;42.622;25.416;2023-03-23T00:08:55;96711.66;;;10.81;85.33
45078;BME280;60508;42.622;25.416;2023-03-23T00:11:29;96707.56;;;10.78;85.03
45078;BME280;60508;42.622;25.416;2023-03-23T00:13:58;96701.81;;;10.70;85.52
45078;BME280;60508;42.622;25.416;2023-03-23T00:16:30;96692.34;;;10.67;85.99
45078;BME280;60508;42.622;25.416;2023-03-23T00:19:06;96683.06;;;10.75;85.66
45078;BME280;60508;42.622;25.416;2023-03-23T00:21:36;96675.25;;;10.73;85.32
45078;BME280;60508;42.622;25.416;2023-03-23T00:24:12;96678.00;;;10.78;85.15
45078;BME280;60508;42.622;25.416;2023-03-23T00:26:47;96686.91;;;10.79;85.46
45078;BME280;60508;42.622;25.416;2023-03-23T00:29:19;96685.25;;;10.78;85.58
45078;BME280;60508;42.622;25.416;2023-03-23T00:31:51;96687.16;;;10.77;84.88
45078;BME280;60508;42.622;25.416;2023-03-23T00:34:21;96683.56;;;10.72;85.62
45078;BME280;60508;42.622;25.416;2023-03-23T00:36:53;96677.94;;;10.73;85.43
45078;BME280;60508;42.622;25.416;2023-03-23T00:39:27;96686.25;;;10.72;85.77
45078;BME280;60508;42.622;25.416;2023-03-23T00:41:55;96686.72;;;10.69;85.40
45078;BME280;60508;42.622;25.416;2023-03-23T00:44:28;96688.31;;;10.65;85.83
45078;BME280;60508;42.622;25.416;2023-03-23T00:46:58;96680.00;;;10.49;86.92
45078;BME280;60508;42.622;25.416;2023-03-23T00:49:27;96688.66;;;10.51;87.96
45078;BME280;60508;42.622;25.416;2023-03-23T00:51:56;96679.34;;;10.42;88.27
45078;BME280;60508;42.622;25.416;2023-03-23T00:54:25;96682.28;;;10.40;88.29
45078;BME280;60508;42.622;25.416;2023-03-23T00:56:52;96676.25;;;10.50;88.42
45078;BME280;60508;42.622;25.416;2023-03-23T00:59:20;96674.38;;;10.51;87.71
45078;BME280;60508;42.622;25.416;2023-03-23T01:01:48;96677.22;;;10.44;88.51
45078;BME280;60508;42.622;25.416;2023-03-23T01:04:16;96687.31;;;10.54;87.38
45078;BME280;60508;42.622;25.416;2023-03-23T01:06:44;96687.25;;;10.49;87.92
45078;BME280;60508;42.622;25.416;2023-03-23T01:09:13;96680.41;;;10.58;87.27
45078;BME280;60508;42.622;25.416;2023-03-23T01:11:43;96683.72;;;10.65;86.80
45078;BME280;60508;42.622;25.416;2023-03-23T01:14:12;96682.75;;;10.71;86.50
45078;BME280;60508;42.622;25.416;2023-03-23T01:16:40;96681.22;;;10.41;87.31
45078;BME280;60508;42.622;25.416;2023-03-23T01:19:07;96675.03;;;10.41;87.95
45078;BME280;60508;42.622;25.416;2023-03-23T01:21:35;96678.38;;;10.48;87.84
45078;BME280;60508;42.622;25.416;2023-03-23T01:24:04;96683.59;;;10.55;88.00
45078;BME280;60508;42.622;25.416;2023-03-23T01:26:33;96680.06;;;10.54;87.55
45078;BME280;60508;42.622;25.416;2023-03-23T01:29:00;96686.59;;;10.58;87.22
45078;BME280;60508;42.622;25.416;2023-03-23T01:31:28;96677.72;;;10.58;87.16
45078;BME280;60508;42.622;25.416;2023-03-23T01:33:55;96677.91;;;10.51;87.54
45078;BME280;60508;42.622;25.416;2023-03-23T01:36:27;96665.44;;;10.45;87.50
45078;BME280;60508;42.622;25.416;2023-03-23T01:39:01;96675.22;;;10.51;87.52
45078;BME280;60508;42.622;25.416;2023-03-23T01:41:31;96677.38;;;10.54;87.98
45078;BME280;60508;42.622;25.416;2023-03-23T01:44:03;96676.03;;;10.52;87.69
45078;BME280;60508;42.622;25.416;2023-03-23T01:46:41;96665.28;;;10.52;87.55
45078;BME280;60508;42.622;25.416;2023-03-23T01:49:33;96681.47;;;10.57;87.21
45078;BME280;60508;42.622;25.416;2023-03-23T01:52:20;96684.81;;;10.47;87.83
45078;BME280;60508;42.622;25.416;2023-03-23T01:54:56;96681.16;;;10.53;87.03
45078;BME280;60508;42.622;25.416;2023-03-23T01:57:25;96673.09;;;10.53;87.33
45078;BME280;60508;42.622;25.416;2023-03-23T02:00:02;96680.97;;;10.60;87.24
45078;BME280;60508;42.622;25.416;2023-03-23T02:02:44;96683.09;;;10.58;87.42
45078;BME280;60508;42.622;25.416;2023-03-23T02:05:39;96675.28;;;10.56;87.36
45078;BME280;60508;42.622;25.416;2023-03-23T02:08:36;96672.19;;;10.48;87.74
45078;BME280;60508;42.622;25.416;2023-03-23T02:11:12;96669.91;;;10.56;87.56
45078;BME280;60508;42.622;25.416;2023-03-23T02:13:42;96666.50;;;10.61;86.00
45078;BME280;60508;42.622;25.416;2023-03-23T02:19:08;96676.47;;;10.83;80.56
45078;BME280;60508;42.622;25.416;2023-03-23T02:24:27;96683.22;;;10.85;80.55
45078;BME280;60508;42.622;25.416;2023-03-23T02:27:02;96687.16;;;10.77;80.42
45078;BME280;60508;42.622;25.416;2023-03-23T02:35:00;96669.84;;;10.34;78.87
45078;BME280;60508;42.622;25.416;2023-03-23T02:37:36;96685.53;;;10.43;78.46
45078;BME280;60508;42.622;25.416;2023-03-23T02:42:48;96689.81;;;10.10;78.60
45078;BME280;60508;42.622;25.416;2023-03-23T02:45:17;96689.91;;;10.15;78.67
45078;BME280;60508;42.622;25.416;2023-03-23T02:47:50;96685.81;;;10.12;78.94
45078;BME280;60508;42.622;25.416;2023-03-23T02:50:21;96696.56;;;10.12;78.58
45078;BME280;60508;42.622;25.416;2023-03-23T02:52:52;96694.78;;;10.18;78.50
45078;BME280;60508;42.622;25.416;2023-03-23T02:55:21;96689.41;;;10.18;78.17
45078;BME280;60508;42.622;25.416;2023-03-23T02:57:52;96689.50;;;10.06;78.41
45078;BME280;60508;42.622;25.416;2023-03-23T03:00:22;96700.72;;;10.03;77.34
45078;BME280;60508;42.622;25.416;2023-03-23T03:02:52;96700.94;;;10.01;78.04
45078;BME280;60508;42.622;25.416;2023-03-23T03:05:38;96709.03;;;9.90;78.54
45078;BME280;60508;42.622;25.416;2023-03-23T03:16:48;96708.56;;;9.93;78.81
45078;BME280;60508;42.622;25.416;2023-03-23T03:19:32;96711.47;;;9.91;79.14
45078;BME280;60508;42.622;25.416;2023-03-23T03:22:03;96711.84;;;9.95;79.46
45078;BME280;60508;42.622;25.416;2023-03-23T03:24:40;96716.13;;;9.96;79.04
45078;BME280;60508;42.622;25.416;2023-03-23T03:27:14;96727.69;;;9.96;79.23
45078;BME280;60508;42.622;25.416;2023-03-23T03:29:55;96713.22;;;9.97;79.60
45078;BME280;60508;42.622;25.416;2023-03-23T03:32:32;96706.13;;;9.91;78.94
45078;BME280;60508;42.622;25.416;2023-03-23T03:35:04;96712.34;;;9.80;79.17
45078;BME280;60508;42.622;25.416;2023-03-23T03:37:37;96706.66;;;9.76;79.84
45078;BME280;60508;42.622;25.416;2023-03-23T03:40:11;96705.84;;;9.76;79.08
45078;BME280;60508;42.622;25.416;2023-03-23T03:42:43;96717.38;;;9.76;78.79
45078;BME280;60508;42.622;25.416;2023-03-23T03:45:20;96721.72;;;9.77;78.46
45078;BME280;60508;42.622;25.416;2023-03-23T03:47:48;96719.59;;;9.79;78.12
45078;BME280;60508;42.622;25.416;2023-03-23T03:50:16;96721.31;;;9.85;78.19
45078;BME280;60508;42.622;25.416;2023-03-23T03:52:45;96725.38;;;9.88;78.13
45078;BME280;60508;42.622;25.416;2023-03-23T03:55:12;96718.97;;;9.89;78.03
45078;BME280;60508;42.622;25.416;2023-03-23T03:57:43;96723.09;;;9.80;78.51
45078;BME280;60508;42.622;25.416;2023-03-23T04:00:45;96718.41;;;9.87;78.20
45078;BME280;60508;42.622;25.416;2023-03-23T04:03:19;96734.41;;;9.82;77.81
45078;BME280;60508;42.622;25.416;2023-03-23T04:06:00;96724.41;;;9.77;78.71
45078;BME280;60508;42.622;25.416;2023-03-23T04:08:29;96729.75;;;9.77;78.88
45078;BME280;60508;42.622;25.416;2023-03-23T04:10:57;96730.81;;;9.76;78.66
45078;BME280;60508;42.622;25.416;2023-03-23T04:13:25;96708.94;;;9.56;78.19
45078;BME280;60508;42.622;25.416;2023-03-23T04:16:03;96713.34;;;9.62;78.97
45078;BME280;60508;42.622;25.416;2023-03-23T04:18:33;96724.56;;;9.59;79.76
45078;BME280;60508;42.622;25.416;2023-03-23T04:21:04;96719.91;;;9.54;80.59
45078;BME280;60508;42.622;25.416;2023-03-23T04:23:34;96719.25;;;9.47;80.23
45078;BME280;60508;42.622;25.416;2023-03-23T04:26:04;96709.94;;;9.38;80.69
45078;BME280;60508;42.622;25.416;2023-03-23T04:28:40;96722.03;;;9.52;80.57
45078;BME280;60508;42.622;25.416;2023-03-23T04:31:35;96729.50;;;9.50;79.95
45078;BME280;60508;42.622;25.416;2023-03-23T04:34:22;96733.59;;;9.41;81.05
45078;BME280;60508;42.622;25.416;2023-03-23T04:36:52;96737.91;;;9.42;81.14
45078;BME280;60508;42.622;25.416;2023-03-23T04:39:24;96746.53;;;9.44;81.28
45078;BME280;60508;42.622;25.416;2023-03-23T04:41:56;96737.91;;;9.42;81.29
45078;BME280;60508;42.622;25.416;2023-03-23T04:45:08;96746.28;;;9.45;80.68
45078;BME280;60508;42.622;25.416;2023-03-23T04:47:40;96750.72;;;9.52;80.38
45078;BME280;60508;42.622;25.416;2023-03-23T04:50:20;96743.72;;;9.50;80.31
45078;BME280;60508;42.622;25.416;2023-03-23T04:52:51;96728.44;;;9.51;80.54
45078;BME280;60508;42.622;25.416;2023-03-23T04:55:20;96732.38;;;9.60;80.04
45078;BME280;60508;42.622;25.416;2023-03-23T04:57:54;96746.84;;;9.59;79.85
45078;BME280;60508;42.622;25.416;2023-03-23T05:00:55;96751.84;;;9.56;79.69
45078;BME280;60508;42.622;25.416;2023-03-23T05:03:25;96747.31;;;9.56;79.49
45078;BME280;60508;42.622;25.416;2023-03-23T05:05:54;96750.69;;;9.63;79.14
45078;BME280;60508;42.622;25.416;2023-03-23T05:08:23;96764.09;;;9.63;79.36
45078;BME280;60508;42.622;25.416;2023-03-23T05:10:57;96761.06;;;9.60;78.88
45078;BME280;60508;42.622;25.416;2023-03-23T05:13:28;96765.72;;;9.64;79.06
45078;BME280;60508;42.622;25.416;2023-03-23T05:16:04;96765.97;;;9.63;79.04
45078;BME280;60508;42.622;25.416;2023-03-23T05:18:32;96760.94;;;9.66;79.25
45078;BME280;60508;42.622;25.416;2023-03-23T05:21:04;96760.00;;;9.73;78.58
45078;BME280;60508;42.622;25.416;2023-03-23T05:23:36;96774.53;;;9.77;78.67
45078;BME280;60508;42.622;25.416;2023-03-23T05:26:14;96767.91;;;9.79;78.58
45078;BME280;60508;42.622;25.416;2023-03-23T05:28:42;96762.66;;;9.73;78.73
45078;BME280;60508;42.622;25.416;2023-03-23T05:31:21;96779.28;;;9.86;78.27
45078;BME280;60508;42.622;25.416;2023-03-23T05:33:49;96782.75;;;9.99;78.14
45078;BME280;60508;42.622;25.416;2023-03-23T05:36:28;96778.31;;;10.04;77.60
45078;BME280;60508;42.622;25.416;2023-03-23T05:39:08;96788.91;;;10.11;77.75
45078;BME280;60508;42.622;25.416;2023-03-23T05:41:55;96786.63;;;10.20;76.91
45078;BME280;60508;42.622;25.416;2023-03-23T05:44:25;96793.50;;;10.28;76.75
45078;BME280;60508;42.622;25.416;2023-03-23T05:46:57;96797.88;;;10.46;76.22
45078;BME280;60508;42.622;25.416;2023-03-23T05:49:24;96787.47;;;10.66;75.66
45078;BME280;60508;42.622;25.416;2023-03-23T05:51:54;96799.69;;;10.74;74.32
45078;BME280;60508;42.622;25.416;2023-03-23T05:54:22;96792.28;;;10.81;71.97
45078;BME280;60508;42.622;25.416;2023-03-23T05:56:50;96803.75;;;10.76;71.01
45078;BME280;60508;42.622;25.416;2023-03-23T05:59:36;96806.94;;;10.73;70.41
45078;BME280;60508;42.622;25.416;2023-03-23T06:02:06;96800.59;;;10.80;70.31
45078;BME280;60508;42.622;25.416;2023-03-23T06:04:33;96812.13;;;10.80;70.22
45078;BME280;60508;42.622;25.416;2023-03-23T06:07:13;96819.22;;;10.86;69.42
45078;BME280;60508;42.622;25.416;2023-03-23T06:09:46;96818.75;;;10.89;68.94
45078;BME280;60508;42.622;25.416;2023-03-23T06:12:33;96821.19;;;10.91;69.12
45078;BME280;60508;42.622;25.416;2023-03-23T06:15:30;96819.00;;;10.88;69.73
45078;BME280;60508;42.622;25.416;2023-03-23T06:18:06;96815.75;;;10.86;69.81
45078;BME280;60508;42.622;25.416;2023-03-23T06:20:41;96814.03;;;10.96;70.18
45078;BME280;60508;42.622;25.416;2023-03-23T06:23:34;96824.38;;;11.05;70.27
45078;BME280;60508;42.622;25.416;2023-03-23T06:26:09;96825.44;;;11.04;69.88
45078;BME280;60508;42.622;25.416;2023-03-23T06:28:39;96816.22;;;11.00;70.54
45078;BME280;60508;42.622;25.416;2023-03-23T06:31:08;96826.16;;;10.99;70.44
45078;BME280;60508;42.622;25.416;2023-03-23T06:33:37;96834.78;;;11.01;71.07
45078;BME280;60508;42.622;25.416;2023-03-23T06:36:08;96828.50;;;11.12;71.08
45078;BME280;60508;42.622;25.416;2023-03-23T06:38:55;96838.59;;;11.22;71.72
45078;BME280;60508;42.622;25.416;2023-03-23T06:41:37;96819.81;;;11.05;71.94
45078;BME280;60508;42.622;25.416;2023-03-23T06:44:05;96836.44;;;11.19;71.18
45078;BME280;60508;42.622;25.416;2023-03-23T06:46:33;96832.50;;;11.27;71.21
45078;BME280;60508;42.622;25.416;2023-03-23T06:49:23;96824.66;;;11.25;70.93
45078;BME280;60508;42.622;25.416;2023-03-23T06:52:03;96828.81;;;11.33;70.16
45078;BME280;60508;42.622;25.416;2023-03-23T06:54:33;96830.91;;;11.48;69.82
45078;BME280;60508;42.622;25.416;2023-03-23T06:57:03;96837.91;;;11.66;68.99
45078;BME280;60508;42.622;25.416;2023-03-23T06:59:32;96838.53;;;11.73;66.84
45078;BME280;60508;42.622;25.416;2023-03-23T07:02:01;96846.16;;;11.98;66.57
45078;BME280;60508;42.622;25.416;2023-03-23T07:04:28;96836.78;;;12.06;66.27
45078;BME280;60508;42.622;25.416;2023-03-23T07:07:07;96830.03;;;12.03;65.68
45078;BME280;60508;42.622;25.416;2023-03-23T07:09:42;96850.56;;;11.87;65.47
45078;BME280;60508;42.622;25.416;2023-03-23T07:12:09;96842.63;;;11.98;65.96
45078;BME280;60508;42.622;25.416;2023-03-23T07:14:45;96843.50;;;12.03;65.65
45078;BME280;60508;42.622;25.416;2023-03-23T07:17:14;96848.75;;;12.15;66.25
45078;BME280;60508;42.622;25.416;2023-03-23T07:19:54;96848.56;;;12.22;65.49
45078;BME280;60508;42.622;25.416;2023-03-23T07:22:23;96860.16;;;12.22;65.18
45078;BME280;60508;42.622;25.416;2023-03-23T07:24:58;96850.25;;;12.28;65.66
45078;BME280;60508;42.622;25.416;2023-03-23T07:27:31;96863.13;;;12.21;65.14
45078;BME280;60508;42.622;25.416;2023-03-23T07:30:02;96864.66;;;12.17;64.52
45078;BME280;60508;42.622;25.416;2023-03-23T07:32:29;96877.34;;;12.16;64.22
45078;BME280;60508;42.622;25.416;2023-03-23T07:34:57;96876.38;;;12.05;65.02
45078;BME280;60508;42.622;25.416;2023-03-23T07:37:44;96875.28;;;12.01;64.12
45078;BME280;60508;42.622;25.416;2023-03-23T07:40:14;96872.75;;;11.95;64.73
45078;BME280;60508;42.622;25.416;2023-03-23T07:42:46;96877.69;;;12.03;63.95
45078;BME280;60508;42.622;25.416;2023-03-23T07:45:25;96877.88;;;12.18;64.00
45078;BME280;60508;42.622;25.416;2023-03-23T07:47:53;96877.94;;;12.23;63.61
45078;BME280;60508;42.622;25.416;2023-03-23T07:50:21;96879.13;;;12.33;63.19
45078;BME280;60508;42.622;25.416;2023-03-23T07:52:56;96877.28;;;12.38;62.72
45078;BME280;60508;42.622;25.416;2023-03-23T07:55:30;96883.38;;;12.51;63.28
45078;BME280;60508;42.622;25.416;2023-03-23T07:58:19;96877.81;;;12.63;64.20
45078;BME280;60508;42.622;25.416;2023-03-23T08:00:51;96887.19;;;12.82;64.08
45078;BME280;60508;42.622;25.416;2023-03-23T08:03:21;96896.16;;;12.88;61.62
45078;BME280;60508;42.622;25.416;2023-03-23T08:05:58;96885.06;;;12.84;62.86
45078;BME280;60508;42.622;25.416;2023-03-23T08:08:47;96896.59;;;13.07;61.35
45078;BME280;60508;42.622;25.416;2023-03-23T08:11:36;96894.47;;;13.41;60.89
45078;BME280;60508;42.622;25.416;2023-03-23T08:14:23;96889.56;;;13.33;60.23
45078;BME280;60508;42.622;25.416;2023-03-23T08:17:26;96903.06;;;13.38;60.24
45078;BME280;60508;42.622;25.416;2023-03-23T08:20:17;96909.50;;;13.05;61.08
45078;BME280;60508;42.622;25.416;2023-03-23T08:23:12;96907.22;;;12.91;61.73
45078;BME280;60508;42.622;25.416;2023-03-23T08:26:00;96909.34;;;12.84;63.22
45078;BME280;60508;42.622;25.416;2023-03-23T08:28:47;96912.06;;;12.89;61.97
45078;BME280;60508;42.622;25.416;2023-03-23T08:31:38;96915.47;;;12.79;62.27
45078;BME280;60508;42.622;25.416;2023-03-23T08:34:22;96918.00;;;12.64;62.02
45078;BME280;60508;42.622;25.416;2023-03-23T08:37:05;96913.19;;;12.66;61.01
45078;BME280;60508;42.622;25.416;2023-03-23T08:39:56;96910.16;;;12.63;60.51
45078;BME280;60508;42.622;25.416;2023-03-23T08:43:02;96912.41;;;12.71;60.21
45078;BME280;60508;42.622;25.416;2023-03-23T08:45:49;96913.34;;;12.82;59.56
45078;BME280;60508;42.622;25.416;2023-03-23T08:48:38;96915.31;;;13.19;58.89
45078;BME280;60508;42.622;25.416;2023-03-23T08:51:25;96923.53;;;13.66;57.15
45078;BME280;60508;42.622;25.416;2023-03-23T08:54:12;96905.38;;;13.99;54.53
45078;BME280;60508;42.622;25.416;2023-03-23T08:56:59;96919.16;;;14.03;54.97
45078;BME280;60508;42.622;25.416;2023-03-23T08:59:51;96924.59;;;13.65;55.50
45078;BME280;60508;42.622;25.416;2023-03-23T09:02:31;96922.69;;;13.61;56.30
45078;BME280;60508;42.622;25.416;2023-03-23T09:05:16;96926.09;;;13.46;56.21
45078;BME280;60508;42.622;25.416;2023-03-23T09:08:03;96926.00;;;13.36;56.10
45078;BME280;60508;42.622;25.416;2023-03-23T09:10:31;96923.22;;;13.30;55.86
45078;BME280;60508;42.622;25.416;2023-03-23T09:12:58;96929.16;;;13.27;56.37
45078;BME280;60508;42.622;25.416;2023-03-23T09:15:26;96929.31;;;13.15;56.77
45078;BME280;60508;42.622;25.416;2023-03-23T09:17:53;96923.66;;;13.17;56.70
45078;BME280;60508;42.622;25.416;2023-03-23T09:20:25;96933.91;;;13.15;55.77
45078;BME280;60508;42.622;25.416;2023-03-23T09:22:55;96929.56;;;13.14;55.75
45078;BME280;60508;42.622;25.416;2023-03-23T09:25:25;96927.06;;;13.07;55.59
45078;BME280;60508;42.622;25.416;2023-03-23T09:27:57;96931.53;;;12.96;56.33
45078;BME280;60508;42.622;25.416;2023-03-23T09:30:28;96928.47;;;12.83;56.71
45078;BME280;60508;42.622;25.416;2023-03-23T09:32:57;96929.63;;;12.65;57.42
45078;BME280;60508;42.622;25.416;2023-03-23T09:35:26;96928.19;;;12.57;57.65
45078;BME280;60508;42.622;25.416;2023-03-23T09:37:55;96928.13;;;12.52;58.52
45078;BME280;60508;42.622;25.416;2023-03-23T09:40:25;96928.09;;;12.47;58.76
45078;BME280;60508;42.622;25.416;2023-03-23T09:43:13;96929.81;;;12.36;58.62
45078;BME280;60508;42.622;25.416;2023-03-23T09:53:51;96931.06;;;12.28;58.25
45078;BME280;60508;42.622;25.416;2023-03-23T09:56:22;96937.22;;;12.23;58.74
45078;BME280;60508;42.622;25.416;2023-03-23T10:01:35;96946.38;;;12.22;59.27
45078;BME280;60508;42.622;25.416;2023-03-23T10:04:27;96942.91;;;12.27;59.51
45078;BME280;60508;42.622;25.416;2023-03-23T10:06:59;96937.97;;;12.41;59.62
45078;BME280;60508;42.622;25.416;2023-03-23T10:09:32;96945.09;;;12.52;59.65
45078;BME280;60508;42.622;25.416;2023-03-23T10:14:43;96932.81;;;12.39;59.37
45078;BME280;60508;42.622;25.416;2023-03-23T10:17:15;96937.91;;;12.36;59.91
45078;BME280;60508;42.622;25.416;2023-03-23T10:20:00;96932.28;;;12.37;59.22
45078;BME280;60508;42.622;25.416;2023-03-23T10:22:42;96943.47;;;12.51;58.90
45078;BME280;60508;42.622;25.416;2023-03-23T10:30:42;96932.13;;;12.49;59.75
45078;BME280;60508;42.622;25.416;2023-03-23T10:33:29;96930.63;;;12.36;59.13
45078;BME280;60508;42.622;25.416;2023-03-23T10:41:29;96932.19;;;12.54;59.50
45078;BME280;60508;42.622;25.416;2023-03-23T10:43:57;96928.44;;;12.55;58.84
45078;BME280;60508;42.622;25.416;2023-03-23T10:46:57;96927.13;;;12.58;58.88
45078;BME280;60508;42.622;25.416;2023-03-23T10:49:30;96928.00;;;12.64;58.78
45078;BME280;60508;42.622;25.416;2023-03-23T10:55:13;96921.69;;;13.07;56.93
45078;BME280;60508;42.622;25.416;2023-03-23T10:57:41;96923.44;;;13.24;56.39
45078;BME280;60508;42.622;25.416;2023-03-23T11:00:18;96917.28;;;13.28;55.70
45078;BME280;60508;42.622;25.416;2023-03-23T11:02:57;96917.19;;;13.18;55.56
45078;BME280;60508;42.622;25.416;2023-03-23T11:05:27;96922.06;;;12.89;55.69
45078;BME280;60508;42.622;25.416;2023-03-23T11:08:00;96919.38;;;12.89;56.06
45078;BME280;60508;42.622;25.416;2023-03-23T11:10:42;96926.41;;;12.95;56.29
45078;BME280;60508;42.622;25.416;2023-03-23T11:13:13;96922.41;;;12.97;56.76
45078;BME280;60508;42.622;25.416;2023-03-23T11:15:42;96911.72;;;12.81;56.12
45078;BME280;60508;42.622;25.416;2023-03-23T11:18:23;96918.53;;;12.88;55.21
45078;BME280;60508;42.622;25.416;2023-03-23T11:20:56;96907.94;;;13.09;55.61
45078;BME280;60508;42.622;25.416;2023-03-23T11:23:28;96916.88;;;13.42;54.27
45078;BME280;60508;42.622;25.416;2023-03-23T11:28:57;96903.25;;;14.06;52.65
45078;BME280;60508;42.622;25.416;2023-03-23T11:31:31;96904.03;;;14.02;52.81
45078;BME280;60508;42.622;25.416;2023-03-23T11:34:03;96888.84;;;13.91;52.44
45078;BME280;60508;42.622;25.416;2023-03-23T11:36:35;96894.03;;;14.02;52.20
45078;BME280;60508;42.622;25.416;2023-03-23T11:41:47;96885.13;;;14.65;51.05
45078;BME280;60508;42.622;25.416;2023-03-23T11:44:16;96880.81;;;14.74;49.80
45078;BME280;60508;42.622;25.416;2023-03-23T11:49:29;96870.00;;;14.85;48.98
45078;BME280;60508;42.622;25.416;2023-03-23T11:52:26;96870.25;;;14.73;48.45
45078;BME280;60508;42.622;25.416;2023-03-23T11:55:27;96866.47;;;16.47;46.19
45078;BME280;60508;42.622;25.416;2023-03-23T11:58:00;96865.66;;;19.33;39.16
45078;BME280;60508;42.622;25.416;2023-03-23T12:00:28;96856.47;;;19.29;38.78
45078;BME280;60508;42.622;25.416;2023-03-23T12:03:04;96849.03;;;20.23;36.52
45078;BME280;60508;42.622;25.416;2023-03-23T12:06:12;96850.31;;;18.66;38.59
45078;BME280;60508;42.622;25.416;2023-03-23T12:11:24;96851.13;;;17.46;40.14
45078;BME280;60508;42.622;25.416;2023-03-23T12:16:48;96866.44;;;16.97;41.08
45078;BME280;60508;42.622;25.416;2023-03-23T12:30:43;96849.38;;;15.86;43.96
45078;BME280;60508;42.622;25.416;2023-03-23T12:44:10;96848.91;;;14.97;46.84
45078;BME280;60508;42.622;25.416;2023-03-23T12:50:00;96844.03;;;14.84;47.96
45078;BME280;60508;42.622;25.416;2023-03-23T12:52:40;96843.47;;;14.87;47.61
45078;BME280;60508;42.622;25.416;2023-03-23T12:55:21;96846.75;;;15.04;46.86
45078;BME280;60508;42.622;25.416;2023-03-23T12:57:57;96852.44;;;14.92;47.09
45078;BME280;60508;42.622;25.416;2023-03-23T13:00:48;96846.72;;;14.78;47.90
45078;BME280;60508;42.622;25.416;2023-03-23T13:03:42;96845.56;;;14.49;47.96
45078;BME280;60508;42.622;25.416;2023-03-23T13:06:33;96845.75;;;14.16;49.28
45078;BME280;60508;42.622;25.416;2023-03-23T13:09:14;96847.81;;;15.19;47.83
45078;BME280;60508;42.622;25.416;2023-03-23T13:11:45;96852.88;;;17.02;43.43
45078;BME280;60508;42.622;25.416;2023-03-23T13:17:22;96848.00;;;15.94;45.47
45078;BME280;60508;42.622;25.416;2023-03-23T13:20:29;96852.91;;;15.82;45.30
45078;BME280;60508;42.622;25.416;2023-03-23T13:23:08;96852.13;;;15.50;45.55
45078;BME280;60508;42.622;25.416;2023-03-23T13:25:53;96849.34;;;15.92;45.27
45078;BME280;60508;42.622;25.416;2023-03-23T13:28:32;96846.91;;;15.90;44.62
45078;BME280;60508;42.622;25.416;2023-03-23T13:31:12;96852.00;;;16.12;44.35
45078;BME280;60508;42.622;25.416;2023-03-23T13:33:46;96847.16;;;16.04;44.46
45078;BME280;60508;42.622;25.416;2023-03-23T13:36:24;96845.69;;;16.27;43.64
45078;BME280;60508;42.622;25.416;2023-03-23T13:38:54;96850.31;;;16.76;42.45
45078;BME280;60508;42.622;25.416;2023-03-23T13:41:23;96844.06;;;16.26;44.32
45078;BME280;60508;42.622;25.416;2023-03-23T13:43:50;96834.78;;;15.57;46.15
45078;BME280;60508;42.622;25.416;2023-03-23T13:51:32;96841.50;;;14.41;48.46
45078;BME280;60508;42.622;25.416;2023-03-23T13:54:39;96834.69;;;14.23;49.09
45078;BME280;60508;42.622;25.416;2023-03-23T13:57:56;96841.66;;;14.03;50.03
45078;BME280;60508;42.622;25.416;2023-03-23T14:03:18;96838.97;;;14.14;49.18
45078;BME280;60508;42.622;25.416;2023-03-23T14:10:57;96847.06;;;14.09;49.92
45078;BME280;60508;42.622;25.416;2023-03-23T14:16:14;96836.00;;;14.15;50.11
45078;BME280;60508;42.622;25.416;2023-03-23T14:18:59;96831.91;;;14.07;49.94
45078;BME280;60508;42.622;25.416;2023-03-23T14:21:36;96834.91;;;14.11;50.24
45078;BME280;60508;42.622;25.416;2023-03-23T14:24:09;96834.09;;;14.16;49.62
45078;BME280;60508;42.622;25.416;2023-03-23T14:26:38;96836.53;;;14.17;49.57
45078;BME280;60508;42.622;25.416;2023-03-23T14:29:08;96840.38;;;14.27;49.14
45078;BME280;60508;42.622;25.416;2023-03-23T14:31:38;96831.75;;;14.40;49.53
45078;BME280;60508;42.622;25.416;2023-03-23T14:34:32;96837.19;;;14.50;48.44
45078;BME280;60508;42.622;25.416;2023-03-23T14:37:00;96836.97;;;14.62;47.75
45078;BME280;60508;42.622;25.416;2023-03-23T14:39:30;96834.00;;;14.79;47.54
45078;BME280;60508;42.622;25.416;2023-03-23T14:42:04;96837.53;;;14.85;47.25
45078;BME280;60508;42.622;25.416;2023-03-23T14:44:38;96837.28;;;14.86;47.31
45078;BME280;60508;42.622;25.416;2023-03-23T14:47:16;96837.25;;;14.96;47.23
45078;BME280;60508;42.622;25.416;2023-03-23T14:49:46;96834.31;;;15.13;46.67
45078;BME280;60508;42.622;25.416;2023-03-23T14:52:17;96836.47;;;15.22;46.13
45078;BME280;60508;42.622;25.416;2023-03-23T14:54:45;96822.63;;;15.39;46.00
45078;BME280;60508;42.622;25.416;2023-03-23T14:57:15;96832.34;;;15.60;45.07
45078;BME280;60508;42.622;25.416;2023-03-23T14:59:45;96818.81;;;15.55;44.80
45078;BME280;60508;42.622;25.416;2023-03-23T15:02:18;96831.00;;;15.47;45.09
45078;BME280;60508;42.622;25.416;2023-03-23T15:04:52;96821.81;;;15.43;45.09
45078;BME280;60508;42.622;25.416;2023-03-23T15:07:26;96822.38;;;15.25;45.20
45078;BME280;60508;42.622;25.416;2023-03-23T15:09:54;96825.34;;;15.28;45.53
45078;BME280;60508;42.622;25.416;2023-03-23T15:12:24;96828.63;;;15.10;46.01
45078;BME280;60508;42.622;25.416;2023-03-23T15:14:55;96832.94;;;15.01;46.51
45078;BME280;60508;42.622;25.416;2023-03-23T15:17:32;96839.16;;;14.91;47.32
45078;BME280;60508;42.622;25.416;2023-03-23T15:20:10;96833.19;;;14.68;47.64
45078;BME280;60508;42.622;25.416;2023-03-23T15:22:45;96831.03;;;14.60;48.14
45078;BME280;60508;42.622;25.416;2023-03-23T15:25:30;96830.16;;;14.44;49.07